
<gpx xmlns="http://www.topografix.com/GPX/1/1" xmlns:gpxx="http://www.garmin.com/xmlschemas/GpxExtensions/v3" xmlns:xsi="http://www.w3.org/2001/XMLSchema-instance" version="1.1" creator="Adze - http://kobotsw.com/apps/adze" xsi:schemaLocation="http://www.topografix.com/GPX/1/1 http://www.topografix.com/GPX/1/1/gpx.xsd http://www.garmin.com/xmlschemas/GpxExtensions/v3 http://www.garmin.com/xmlschemas/GpxExtensionsv3.xsd">
    <metadata>
        <name>Untitled Document</name>
        <link href="http://www.garmin.com"></link>
        <time>2018-02-04T08:25:15.795Z</time>
    </metadata>
    <wpt lon="101.473965" lat="14.554771">
        <ele>364.000000</ele>
        <time>2016-09-24T05:41:39Z</time>
        <name>Khaoyai Kirithantip Resort</name>
        <sym>Lodging</sym>
        <extensions>
            <gpxx:WaypointExtension xmlns:gpxx="http://www.garmin.com/xmlschemas/GpxExtensions/v3">
                <gpxx:DisplayMode>SymbolOnly</gpxx:DisplayMode>
            </gpxx:WaypointExtension>
        </extensions>
    </wpt>
    <wpt lon="101.485948" lat="14.508052">
        <ele>427.000000</ele>
        <time>2016-09-25T04:17:06Z</time>
        <name>Water Sunday</name>
        <sym>Drinking Water</sym>
        <extensions>
            <gpxx:WaypointExtension xmlns:gpxx="http://www.garmin.com/xmlschemas/GpxExtensions/v3">
                <gpxx:DisplayMode>SymbolOnly</gpxx:DisplayMode>
            </gpxx:WaypointExtension>
        </extensions>
    </wpt>
    <trk>
        <name>Sunday</name>
        <extensions>
            <gpxx:TrackExtension xmlns:gpxx="http://www.garmin.com/xmlschemas/GpxExtensions/v3">
                <gpxx:DisplayColor>Green</gpxx:DisplayColor>
            </gpxx:TrackExtension>
        </extensions>
        <trkseg>
            <trkpt lon="101.473976" lat="14.554806">
                <ele>363.520000</ele>
                <time>2016-09-25T03:04:14Z</time>
            </trkpt>
            <trkpt lon="101.473925" lat="14.554679">
                <ele>362.550000</ele>
                <time>2016-09-25T03:04:23Z</time>
            </trkpt>
            <trkpt lon="101.473656" lat="14.554693">
                <ele>362.550000</ele>
                <time>2016-09-25T03:04:33Z</time>
            </trkpt>
            <trkpt lon="101.473453" lat="14.554722">
                <ele>360.630000</ele>
                <time>2016-09-25T03:04:39Z</time>
            </trkpt>
            <trkpt lon="101.472999" lat="14.552116">
                <ele>353.420000</ele>
                <time>2016-09-25T03:05:46Z</time>
            </trkpt>
            <trkpt lon="101.472980" lat="14.551902">
                <ele>352.940000</ele>
                <time>2016-09-25T03:05:55Z</time>
            </trkpt>
            <trkpt lon="101.473319" lat="14.551712">
                <ele>355.340000</ele>
                <time>2016-09-25T03:06:09Z</time>
            </trkpt>
            <trkpt lon="101.472755" lat="14.549859">
                <ele>358.710000</ele>
                <time>2016-09-25T03:07:03Z</time>
            </trkpt>
            <trkpt lon="101.472303" lat="14.549039">
                <ele>360.630000</ele>
                <time>2016-09-25T03:07:26Z</time>
            </trkpt>
            <trkpt lon="101.472171" lat="14.548601">
                <ele>361.110000</ele>
                <time>2016-09-25T03:07:38Z</time>
            </trkpt>
            <trkpt lon="101.472076" lat="14.547923">
                <ele>360.150000</ele>
                <time>2016-09-25T03:08:00Z</time>
            </trkpt>
            <trkpt lon="101.471470" lat="14.547868">
                <ele>358.230000</ele>
                <time>2016-09-25T03:08:14Z</time>
            </trkpt>
            <trkpt lon="101.471065" lat="14.548166">
                <ele>359.190000</ele>
                <time>2016-09-25T03:08:33Z</time>
            </trkpt>
            <trkpt lon="101.470539" lat="14.547960">
                <ele>358.710000</ele>
                <time>2016-09-25T03:08:45Z</time>
            </trkpt>
            <trkpt lon="101.468956" lat="14.547926">
                <ele>358.230000</ele>
                <time>2016-09-25T03:09:22Z</time>
            </trkpt>
            <trkpt lon="101.469035" lat="14.548082">
                <ele>357.750000</ele>
                <time>2016-09-25T03:09:47Z</time>
            </trkpt>
            <trkpt lon="101.468835" lat="14.548473">
                <ele>356.790000</ele>
                <time>2016-09-25T03:10:32Z</time>
            </trkpt>
            <trkpt lon="101.469593" lat="14.546920">
                <ele>359.670000</ele>
                <time>2016-09-25T03:11:31Z</time>
            </trkpt>
            <trkpt lon="101.470069" lat="14.546272">
                <ele>360.150000</ele>
                <time>2016-09-25T03:12:04Z</time>
            </trkpt>
            <trkpt lon="101.468928" lat="14.546187">
                <ele>362.070000</ele>
                <time>2016-09-25T03:12:43Z</time>
            </trkpt>
            <trkpt lon="101.468879" lat="14.544754">
                <ele>363.520000</ele>
                <time>2016-09-25T03:13:30Z</time>
            </trkpt>
            <trkpt lon="101.468725" lat="14.544376">
                <ele>364.960000</ele>
                <time>2016-09-25T03:13:46Z</time>
            </trkpt>
            <trkpt lon="101.468391" lat="14.544289">
                <ele>366.400000</ele>
                <time>2016-09-25T03:13:59Z</time>
            </trkpt>
            <trkpt lon="101.466860" lat="14.543787">
                <ele>365.440000</ele>
                <time>2016-09-25T03:14:48Z</time>
            </trkpt>
            <trkpt lon="101.466748" lat="14.542556">
                <ele>366.880000</ele>
                <time>2016-09-25T03:16:07Z</time>
            </trkpt>
            <trkpt lon="101.465068" lat="14.542497">
                <ele>368.320000</ele>
                <time>2016-09-25T03:17:54Z</time>
            </trkpt>
            <trkpt lon="101.464175" lat="14.542472">
                <ele>365.920000</ele>
                <time>2016-09-25T03:18:21Z</time>
            </trkpt>
            <trkpt lon="101.463944" lat="14.542365">
                <ele>367.360000</ele>
                <time>2016-09-25T03:18:32Z</time>
            </trkpt>
            <trkpt lon="101.463876" lat="14.541287">
                <ele>369.280000</ele>
                <time>2016-09-25T03:19:26Z</time>
            </trkpt>
            <trkpt lon="101.464376" lat="14.540928">
                <ele>365.920000</ele>
                <time>2016-09-25T03:19:48Z</time>
            </trkpt>
            <trkpt lon="101.464479" lat="14.540670">
                <ele>369.760000</ele>
                <time>2016-09-25T03:19:58Z</time>
            </trkpt>
            <trkpt lon="101.464040" lat="14.540376">
                <ele>379.860000</ele>
                <time>2016-09-25T03:20:17Z</time>
            </trkpt>
            <trkpt lon="101.463765" lat="14.540142">
                <ele>382.260000</ele>
                <time>2016-09-25T03:20:28Z</time>
            </trkpt>
            <trkpt lon="101.463471" lat="14.539818">
                <ele>382.260000</ele>
                <time>2016-09-25T03:20:41Z</time>
            </trkpt>
            <trkpt lon="101.463431" lat="14.539508">
                <ele>380.820000</ele>
                <time>2016-09-25T03:20:52Z</time>
            </trkpt>
            <trkpt lon="101.463634" lat="14.538918">
                <ele>377.450000</ele>
                <time>2016-09-25T03:21:09Z</time>
            </trkpt>
            <trkpt lon="101.464016" lat="14.538356">
                <ele>376.010000</ele>
                <time>2016-09-25T03:21:26Z</time>
            </trkpt>
            <trkpt lon="101.464475" lat="14.537840">
                <ele>376.010000</ele>
                <time>2016-09-25T03:21:44Z</time>
            </trkpt>
            <trkpt lon="101.462896" lat="14.537143">
                <ele>375.050000</ele>
                <time>2016-09-25T03:22:25Z</time>
            </trkpt>
            <trkpt lon="101.462398" lat="14.536707">
                <ele>376.490000</ele>
                <time>2016-09-25T03:22:43Z</time>
            </trkpt>
            <trkpt lon="101.462784" lat="14.534750">
                <ele>376.970000</ele>
                <time>2016-09-25T03:23:48Z</time>
            </trkpt>
            <trkpt lon="101.462778" lat="14.534577">
                <ele>378.420000</ele>
                <time>2016-09-25T03:24:20Z</time>
            </trkpt>
            <trkpt lon="101.462522" lat="14.534608">
                <ele>380.340000</ele>
                <time>2016-09-25T03:25:00Z</time>
            </trkpt>
            <trkpt lon="101.462388" lat="14.534260">
                <ele>380.340000</ele>
                <time>2016-09-25T03:25:38Z</time>
            </trkpt>
            <trkpt lon="101.461773" lat="14.533574">
                <ele>380.820000</ele>
                <time>2016-09-25T03:26:08Z</time>
            </trkpt>
            <trkpt lon="101.460823" lat="14.533314">
                <ele>378.900000</ele>
                <time>2016-09-25T03:26:35Z</time>
            </trkpt>
            <trkpt lon="101.460745" lat="14.533742">
                <ele>376.490000</ele>
                <time>2016-09-25T03:26:46Z</time>
            </trkpt>
            <trkpt lon="101.460548" lat="14.533899">
                <ele>375.530000</ele>
                <time>2016-09-25T03:26:53Z</time>
            </trkpt>
            <trkpt lon="101.459856" lat="14.534125">
                <ele>376.970000</ele>
                <time>2016-09-25T03:27:11Z</time>
            </trkpt>
            <trkpt lon="101.459531" lat="14.534499">
                <ele>378.420000</ele>
                <time>2016-09-25T03:27:24Z</time>
            </trkpt>
            <trkpt lon="101.459227" lat="14.534660">
                <ele>378.900000</ele>
                <time>2016-09-25T03:27:33Z</time>
            </trkpt>
            <trkpt lon="101.458675" lat="14.534773">
                <ele>378.900000</ele>
                <time>2016-09-25T03:27:48Z</time>
            </trkpt>
            <trkpt lon="101.458727" lat="14.535146">
                <ele>378.900000</ele>
                <time>2016-09-25T03:27:57Z</time>
            </trkpt>
            <trkpt lon="101.458948" lat="14.535262">
                <ele>378.900000</ele>
                <time>2016-09-25T03:28:03Z</time>
            </trkpt>
            <trkpt lon="101.459430" lat="14.535271">
                <ele>379.380000</ele>
                <time>2016-09-25T03:28:14Z</time>
            </trkpt>
            <trkpt lon="101.459650" lat="14.535352">
                <ele>378.900000</ele>
                <time>2016-09-25T03:28:19Z</time>
            </trkpt>
            <trkpt lon="101.460224" lat="14.536324">
                <ele>372.170000</ele>
                <time>2016-09-25T03:28:43Z</time>
            </trkpt>
            <trkpt lon="101.459900" lat="14.536621">
                <ele>371.690000</ele>
                <time>2016-09-25T03:28:56Z</time>
            </trkpt>
            <trkpt lon="101.459924" lat="14.536924">
                <ele>371.210000</ele>
                <time>2016-09-25T03:29:04Z</time>
            </trkpt>
            <trkpt lon="101.459733" lat="14.537039">
                <ele>371.690000</ele>
                <time>2016-09-25T03:29:12Z</time>
            </trkpt>
            <trkpt lon="101.458783" lat="14.537066">
                <ele>378.420000</ele>
                <time>2016-09-25T03:29:45Z</time>
            </trkpt>
            <trkpt lon="101.458710" lat="14.537059">
                <ele>380.820000</ele>
                <time>2016-09-25T03:30:10Z</time>
            </trkpt>
            <trkpt lon="101.458667" lat="14.537035">
                <ele>379.380000</ele>
                <time>2016-09-25T03:30:21Z</time>
            </trkpt>
            <trkpt lon="101.458614" lat="14.535956">
                <ele>381.780000</ele>
                <time>2016-09-25T03:31:14Z</time>
            </trkpt>
            <trkpt lon="101.458653" lat="14.535526">
                <ele>382.260000</ele>
                <time>2016-09-25T03:31:29Z</time>
            </trkpt>
            <trkpt lon="101.458643" lat="14.535091">
                <ele>379.380000</ele>
                <time>2016-09-25T03:31:46Z</time>
            </trkpt>
            <trkpt lon="101.458110" lat="14.532420">
                <ele>381.300000</ele>
                <time>2016-09-25T03:33:11Z</time>
            </trkpt>
            <trkpt lon="101.457784" lat="14.531517">
                <ele>384.660000</ele>
                <time>2016-09-25T03:33:43Z</time>
            </trkpt>
            <trkpt lon="101.458719" lat="14.530422">
                <ele>389.470000</ele>
                <time>2016-09-25T03:34:28Z</time>
            </trkpt>
            <trkpt lon="101.458792" lat="14.529345">
                <ele>389.470000</ele>
                <time>2016-09-25T03:35:01Z</time>
            </trkpt>
            <trkpt lon="101.458528" lat="14.527761">
                <ele>390.910000</ele>
                <time>2016-09-25T03:35:48Z</time>
            </trkpt>
            <trkpt lon="101.457607" lat="14.525748">
                <ele>395.720000</ele>
                <time>2016-09-25T03:36:58Z</time>
            </trkpt>
            <trkpt lon="101.457183" lat="14.524917">
                <ele>396.680000</ele>
                <time>2016-09-25T03:37:26Z</time>
            </trkpt>
            <trkpt lon="101.457006" lat="14.524601">
                <ele>399.570000</ele>
                <time>2016-09-25T03:38:21Z</time>
            </trkpt>
            <trkpt lon="101.456695" lat="14.523963">
                <ele>397.160000</ele>
                <time>2016-09-25T03:38:44Z</time>
            </trkpt>
            <trkpt lon="101.456326" lat="14.523623">
                <ele>400.050000</ele>
                <time>2016-09-25T03:38:59Z</time>
            </trkpt>
            <trkpt lon="101.455674" lat="14.523507">
                <ele>398.120000</ele>
                <time>2016-09-25T03:39:24Z</time>
            </trkpt>
            <trkpt lon="101.454244" lat="14.523405">
                <ele>395.240000</ele>
                <time>2016-09-25T03:40:00Z</time>
            </trkpt>
            <trkpt lon="101.453960" lat="14.523158">
                <ele>395.240000</ele>
                <time>2016-09-25T03:40:09Z</time>
            </trkpt>
            <trkpt lon="101.453574" lat="14.522273">
                <ele>393.320000</ele>
                <time>2016-09-25T03:40:29Z</time>
            </trkpt>
            <trkpt lon="101.453649" lat="14.521385">
                <ele>391.870000</ele>
                <time>2016-09-25T03:40:46Z</time>
            </trkpt>
            <trkpt lon="101.453472" lat="14.521170">
                <ele>391.390000</ele>
                <time>2016-09-25T03:40:51Z</time>
            </trkpt>
            <trkpt lon="101.452684" lat="14.518925">
                <ele>393.800000</ele>
                <time>2016-09-25T03:41:56Z</time>
            </trkpt>
            <trkpt lon="101.452582" lat="14.518099">
                <ele>399.080000</ele>
                <time>2016-09-25T03:42:28Z</time>
            </trkpt>
            <trkpt lon="101.452623" lat="14.517224">
                <ele>403.890000</ele>
                <time>2016-09-25T03:43:00Z</time>
            </trkpt>
            <trkpt lon="101.452845" lat="14.516679">
                <ele>406.770000</ele>
                <time>2016-09-25T03:43:21Z</time>
            </trkpt>
            <trkpt lon="101.452946" lat="14.515648">
                <ele>416.870000</ele>
                <time>2016-09-25T03:44:06Z</time>
            </trkpt>
            <trkpt lon="101.452959" lat="14.515257">
                <ele>416.870000</ele>
                <time>2016-09-25T03:44:22Z</time>
            </trkpt>
            <trkpt lon="101.452624" lat="14.514901">
                <ele>414.470000</ele>
                <time>2016-09-25T03:44:38Z</time>
            </trkpt>
            <trkpt lon="101.454192" lat="14.515014">
                <ele>414.470000</ele>
                <time>2016-09-25T03:45:23Z</time>
            </trkpt>
            <trkpt lon="101.455279" lat="14.515600">
                <ele>413.980000</ele>
                <time>2016-09-25T03:45:55Z</time>
            </trkpt>
            <trkpt lon="101.456607" lat="14.515936">
                <ele>416.390000</ele>
                <time>2016-09-25T03:46:31Z</time>
            </trkpt>
            <trkpt lon="101.456621" lat="14.515930">
                <ele>414.950000</ele>
                <time>2016-09-25T03:46:42Z</time>
            </trkpt>
            <trkpt lon="101.456604" lat="14.515860">
                <ele>416.870000</ele>
                <time>2016-09-25T03:47:30Z</time>
            </trkpt>
            <trkpt lon="101.456522" lat="14.515205">
                <ele>418.310000</ele>
                <time>2016-09-25T03:48:14Z</time>
            </trkpt>
            <trkpt lon="101.456686" lat="14.514931">
                <ele>419.270000</ele>
                <time>2016-09-25T03:48:23Z</time>
            </trkpt>
            <trkpt lon="101.457820" lat="14.514776">
                <ele>426.480000</ele>
                <time>2016-09-25T03:48:54Z</time>
            </trkpt>
            <trkpt lon="101.457934" lat="14.514676">
                <ele>426.480000</ele>
                <time>2016-09-25T03:48:58Z</time>
            </trkpt>
            <trkpt lon="101.458132" lat="14.513233">
                <ele>420.710000</ele>
                <time>2016-09-25T03:49:25Z</time>
            </trkpt>
            <trkpt lon="101.458130" lat="14.510239">
                <ele>413.500000</ele>
                <time>2016-09-25T03:50:16Z</time>
            </trkpt>
            <trkpt lon="101.458248" lat="14.509750">
                <ele>415.430000</ele>
                <time>2016-09-25T03:50:32Z</time>
            </trkpt>
            <trkpt lon="101.459550" lat="14.509657">
                <ele>411.580000</ele>
                <time>2016-09-25T03:51:02Z</time>
            </trkpt>
            <trkpt lon="101.459680" lat="14.509430">
                <ele>411.100000</ele>
                <time>2016-09-25T03:51:09Z</time>
            </trkpt>
            <trkpt lon="101.459578" lat="14.508410">
                <ele>409.660000</ele>
                <time>2016-09-25T03:51:36Z</time>
            </trkpt>
            <trkpt lon="101.459848" lat="14.507608">
                <ele>418.310000</ele>
                <time>2016-09-25T03:52:17Z</time>
            </trkpt>
            <trkpt lon="101.459979" lat="14.506155">
                <ele>431.770000</ele>
                <time>2016-09-25T03:53:17Z</time>
            </trkpt>
            <trkpt lon="101.460160" lat="14.505825">
                <ele>434.170000</ele>
                <time>2016-09-25T03:53:33Z</time>
            </trkpt>
            <trkpt lon="101.460817" lat="14.505025">
                <ele>426.960000</ele>
                <time>2016-09-25T03:54:10Z</time>
            </trkpt>
            <trkpt lon="101.460539" lat="14.504479">
                <ele>423.600000</ele>
                <time>2016-09-25T03:54:28Z</time>
            </trkpt>
            <trkpt lon="101.460702" lat="14.504107">
                <ele>422.160000</ele>
                <time>2016-09-25T03:54:38Z</time>
            </trkpt>
            <trkpt lon="101.460036" lat="14.503042">
                <ele>420.230000</ele>
                <time>2016-09-25T03:55:11Z</time>
            </trkpt>
            <trkpt lon="101.460131" lat="14.502799">
                <ele>420.710000</ele>
                <time>2016-09-25T03:55:20Z</time>
            </trkpt>
            <trkpt lon="101.460022" lat="14.502293">
                <ele>422.160000</ele>
                <time>2016-09-25T03:55:36Z</time>
            </trkpt>
            <trkpt lon="101.459418" lat="14.501482">
                <ele>424.560000</ele>
                <time>2016-09-25T03:56:08Z</time>
            </trkpt>
            <trkpt lon="101.459162" lat="14.499191">
                <ele>425.520000</ele>
                <time>2016-09-25T03:57:09Z</time>
            </trkpt>
            <trkpt lon="101.459328" lat="14.498911">
                <ele>427.440000</ele>
                <time>2016-09-25T03:57:22Z</time>
            </trkpt>
            <trkpt lon="101.460154" lat="14.498949">
                <ele>433.210000</ele>
                <time>2016-09-25T03:57:48Z</time>
            </trkpt>
            <trkpt lon="101.460570" lat="14.499106">
                <ele>434.170000</ele>
                <time>2016-09-25T03:57:59Z</time>
            </trkpt>
            <trkpt lon="101.461660" lat="14.499544">
                <ele>435.610000</ele>
                <time>2016-09-25T03:58:35Z</time>
            </trkpt>
            <trkpt lon="101.462383" lat="14.500061">
                <ele>433.690000</ele>
                <time>2016-09-25T03:59:00Z</time>
            </trkpt>
            <trkpt lon="101.462811" lat="14.500150">
                <ele>437.060000</ele>
                <time>2016-09-25T03:59:14Z</time>
            </trkpt>
            <trkpt lon="101.463313" lat="14.500134">
                <ele>435.610000</ele>
                <time>2016-09-25T03:59:29Z</time>
            </trkpt>
            <trkpt lon="101.464113" lat="14.499930">
                <ele>433.690000</ele>
                <time>2016-09-25T03:59:53Z</time>
            </trkpt>
            <trkpt lon="101.464521" lat="14.500048">
                <ele>439.460000</ele>
                <time>2016-09-25T04:00:06Z</time>
            </trkpt>
            <trkpt lon="101.464872" lat="14.500248">
                <ele>435.130000</ele>
                <time>2016-09-25T04:00:16Z</time>
            </trkpt>
            <trkpt lon="101.465870" lat="14.500366">
                <ele>445.710000</ele>
                <time>2016-09-25T04:00:46Z</time>
            </trkpt>
            <trkpt lon="101.466579" lat="14.500398">
                <ele>441.860000</ele>
                <time>2016-09-25T04:01:06Z</time>
            </trkpt>
            <trkpt lon="101.467277" lat="14.500671">
                <ele>439.460000</ele>
                <time>2016-09-25T04:01:32Z</time>
            </trkpt>
            <trkpt lon="101.468366" lat="14.501215">
                <ele>430.810000</ele>
                <time>2016-09-25T04:02:08Z</time>
            </trkpt>
            <trkpt lon="101.468526" lat="14.501178">
                <ele>426.960000</ele>
                <time>2016-09-25T04:02:15Z</time>
            </trkpt>
            <trkpt lon="101.468774" lat="14.501178">
                <ele>426.480000</ele>
                <time>2016-09-25T04:02:28Z</time>
            </trkpt>
            <trkpt lon="101.469302" lat="14.501639">
                <ele>435.610000</ele>
                <time>2016-09-25T04:02:55Z</time>
            </trkpt>
            <trkpt lon="101.469865" lat="14.501838">
                <ele>438.980000</ele>
                <time>2016-09-25T04:03:18Z</time>
            </trkpt>
            <trkpt lon="101.471007" lat="14.502023">
                <ele>428.890000</ele>
                <time>2016-09-25T04:03:57Z</time>
            </trkpt>
            <trkpt lon="101.473910" lat="14.503549">
                <ele>413.980000</ele>
                <time>2016-09-25T04:05:30Z</time>
            </trkpt>
            <trkpt lon="101.474760" lat="14.504627">
                <ele>410.620000</ele>
                <time>2016-09-25T04:06:07Z</time>
            </trkpt>
            <trkpt lon="101.474980" lat="14.504941">
                <ele>408.220000</ele>
                <time>2016-09-25T04:06:18Z</time>
            </trkpt>
            <trkpt lon="101.475362" lat="14.505074">
                <ele>402.450000</ele>
                <time>2016-09-25T04:06:30Z</time>
            </trkpt>
            <trkpt lon="101.476450" lat="14.505182">
                <ele>409.180000</ele>
                <time>2016-09-25T04:07:09Z</time>
            </trkpt>
            <trkpt lon="101.477401" lat="14.505463">
                <ele>403.890000</ele>
                <time>2016-09-25T04:07:36Z</time>
            </trkpt>
            <trkpt lon="101.478174" lat="14.505289">
                <ele>415.430000</ele>
                <time>2016-09-25T04:08:02Z</time>
            </trkpt>
            <trkpt lon="101.478511" lat="14.505089">
                <ele>419.270000</ele>
                <time>2016-09-25T04:08:12Z</time>
            </trkpt>
            <trkpt lon="101.479217" lat="14.504814">
                <ele>418.790000</ele>
                <time>2016-09-25T04:08:37Z</time>
            </trkpt>
            <trkpt lon="101.479421" lat="14.504749">
                <ele>415.910000</ele>
                <time>2016-09-25T04:08:52Z</time>
            </trkpt>
            <trkpt lon="101.480082" lat="14.503930">
                <ele>426.000000</ele>
                <time>2016-09-25T04:09:43Z</time>
            </trkpt>
            <trkpt lon="101.480373" lat="14.503648">
                <ele>424.080000</ele>
                <time>2016-09-25T04:10:04Z</time>
            </trkpt>
            <trkpt lon="101.480729" lat="14.503365">
                <ele>418.310000</ele>
                <time>2016-09-25T04:10:26Z</time>
            </trkpt>
            <trkpt lon="101.481121" lat="14.502603">
                <ele>414.950000</ele>
                <time>2016-09-25T04:10:57Z</time>
            </trkpt>
            <trkpt lon="101.481409" lat="14.502470">
                <ele>417.350000</ele>
                <time>2016-09-25T04:11:09Z</time>
            </trkpt>
            <trkpt lon="101.481703" lat="14.502520">
                <ele>415.910000</ele>
                <time>2016-09-25T04:11:19Z</time>
            </trkpt>
            <trkpt lon="101.482368" lat="14.501619">
                <ele>423.120000</ele>
                <time>2016-09-25T04:12:04Z</time>
            </trkpt>
            <trkpt lon="101.482551" lat="14.501390">
                <ele>425.520000</ele>
                <time>2016-09-25T04:12:20Z</time>
            </trkpt>
            <trkpt lon="101.482765" lat="14.501190">
                <ele>430.330000</ele>
                <time>2016-09-25T04:12:40Z</time>
            </trkpt>
            <trkpt lon="101.482893" lat="14.501616">
                <ele>426.480000</ele>
                <time>2016-09-25T04:12:52Z</time>
            </trkpt>
            <trkpt lon="101.483231" lat="14.503456">
                <ele>415.430000</ele>
                <time>2016-09-25T04:13:54Z</time>
            </trkpt>
            <trkpt lon="101.483262" lat="14.504811">
                <ele>415.910000</ele>
                <time>2016-09-25T04:14:26Z</time>
            </trkpt>
            <trkpt lon="101.483490" lat="14.505490">
                <ele>416.390000</ele>
                <time>2016-09-25T04:14:42Z</time>
            </trkpt>
            <trkpt lon="101.483919" lat="14.505930">
                <ele>417.350000</ele>
                <time>2016-09-25T04:14:59Z</time>
            </trkpt>
            <trkpt lon="101.484768" lat="14.506467">
                <ele>420.710000</ele>
                <time>2016-09-25T04:15:37Z</time>
            </trkpt>
            <trkpt lon="101.485161" lat="14.506779">
                <ele>421.190000</ele>
                <time>2016-09-25T04:15:56Z</time>
            </trkpt>
            <trkpt lon="101.485514" lat="14.507219">
                <ele>423.600000</ele>
                <time>2016-09-25T04:16:16Z</time>
            </trkpt>
            <trkpt lon="101.485946" lat="14.507925">
                <ele>425.040000</ele>
                <time>2016-09-25T04:16:42Z</time>
            </trkpt>
            <trkpt lon="101.485926" lat="14.507987">
                <ele>426.480000</ele>
                <time>2016-09-25T04:16:49Z</time>
            </trkpt>
            <trkpt lon="101.485929" lat="14.507997">
                <ele>426.480000</ele>
                <time>2016-09-25T04:16:50Z</time>
            </trkpt>
            <trkpt lon="101.483762" lat="14.508647">
                <ele>422.160000</ele>
                <time>2016-09-25T04:19:05Z</time>
            </trkpt>
            <trkpt lon="101.483679" lat="14.508740">
                <ele>422.160000</ele>
                <time>2016-09-25T04:19:07Z</time>
            </trkpt>
            <trkpt lon="101.482268" lat="14.510559">
                <ele>414.470000</ele>
                <time>2016-09-25T04:19:38Z</time>
            </trkpt>
            <trkpt lon="101.481813" lat="14.511490">
                <ele>410.620000</ele>
                <time>2016-09-25T04:19:52Z</time>
            </trkpt>
            <trkpt lon="101.480981" lat="14.512479">
                <ele>404.370000</ele>
                <time>2016-09-25T04:20:06Z</time>
            </trkpt>
            <trkpt lon="101.480841" lat="14.512798">
                <ele>403.410000</ele>
                <time>2016-09-25T04:20:10Z</time>
            </trkpt>
            <trkpt lon="101.480867" lat="14.513841">
                <ele>404.370000</ele>
                <time>2016-09-25T04:20:24Z</time>
            </trkpt>
            <trkpt lon="101.480940" lat="14.514677">
                <ele>408.220000</ele>
                <time>2016-09-25T04:20:40Z</time>
            </trkpt>
            <trkpt lon="101.480660" lat="14.515477">
                <ele>406.290000</ele>
                <time>2016-09-25T04:20:56Z</time>
            </trkpt>
            <trkpt lon="101.480176" lat="14.516513">
                <ele>398.600000</ele>
                <time>2016-09-25T04:21:12Z</time>
            </trkpt>
            <trkpt lon="101.480006" lat="14.518728">
                <ele>392.360000</ele>
                <time>2016-09-25T04:21:40Z</time>
            </trkpt>
            <trkpt lon="101.480135" lat="14.519582">
                <ele>395.720000</ele>
                <time>2016-09-25T04:21:56Z</time>
            </trkpt>
            <trkpt lon="101.480418" lat="14.520366">
                <ele>399.570000</ele>
                <time>2016-09-25T04:22:13Z</time>
            </trkpt>
            <trkpt lon="101.481304" lat="14.522185">
                <ele>400.530000</ele>
                <time>2016-09-25T04:22:50Z</time>
            </trkpt>
            <trkpt lon="101.481283" lat="14.522378">
                <ele>400.530000</ele>
                <time>2016-09-25T04:22:56Z</time>
            </trkpt>
            <trkpt lon="101.481173" lat="14.522445">
                <ele>399.080000</ele>
                <time>2016-09-25T04:23:04Z</time>
            </trkpt>
            <trkpt lon="101.481163" lat="14.522472">
                <ele>398.600000</ele>
                <time>2016-09-25T04:23:06Z</time>
            </trkpt>
            <trkpt lon="101.481636" lat="14.523169">
                <ele>401.010000</ele>
                <time>2016-09-25T04:23:40Z</time>
            </trkpt>
            <trkpt lon="101.481434" lat="14.523490">
                <ele>398.600000</ele>
                <time>2016-09-25T04:23:54Z</time>
            </trkpt>
            <trkpt lon="101.482418" lat="14.524236">
                <ele>400.530000</ele>
                <time>2016-09-25T04:24:30Z</time>
            </trkpt>
            <trkpt lon="101.483002" lat="14.524463">
                <ele>401.970000</ele>
                <time>2016-09-25T04:24:49Z</time>
            </trkpt>
            <trkpt lon="101.484028" lat="14.524824">
                <ele>401.010000</ele>
                <time>2016-09-25T04:25:14Z</time>
            </trkpt>
            <trkpt lon="101.484103" lat="14.525005">
                <ele>401.010000</ele>
                <time>2016-09-25T04:25:19Z</time>
            </trkpt>
            <trkpt lon="101.483895" lat="14.525842">
                <ele>398.120000</ele>
                <time>2016-09-25T04:25:38Z</time>
            </trkpt>
            <trkpt lon="101.484521" lat="14.526078">
                <ele>394.280000</ele>
                <time>2016-09-25T04:25:54Z</time>
            </trkpt>
            <trkpt lon="101.485238" lat="14.529151">
                <ele>394.760000</ele>
                <time>2016-09-25T04:26:48Z</time>
            </trkpt>
            <trkpt lon="101.485872" lat="14.531199">
                <ele>391.870000</ele>
                <time>2016-09-25T04:27:22Z</time>
            </trkpt>
            <trkpt lon="101.486255" lat="14.532101">
                <ele>389.470000</ele>
                <time>2016-09-25T04:27:38Z</time>
            </trkpt>
            <trkpt lon="101.487184" lat="14.533504">
                <ele>385.630000</ele>
                <time>2016-09-25T04:28:03Z</time>
            </trkpt>
            <trkpt lon="101.487430" lat="14.533629">
                <ele>383.700000</ele>
                <time>2016-09-25T04:28:08Z</time>
            </trkpt>
            <trkpt lon="101.487490" lat="14.533717">
                <ele>384.660000</ele>
                <time>2016-09-25T04:28:10Z</time>
            </trkpt>
            <trkpt lon="101.487765" lat="14.534742">
                <ele>387.070000</ele>
                <time>2016-09-25T04:28:28Z</time>
            </trkpt>
            <trkpt lon="101.487369" lat="14.536040">
                <ele>389.950000</ele>
                <time>2016-09-25T04:28:56Z</time>
            </trkpt>
            <trkpt lon="101.487380" lat="14.536512">
                <ele>392.840000</ele>
                <time>2016-09-25T04:29:06Z</time>
            </trkpt>
            <trkpt lon="101.487756" lat="14.536952">
                <ele>390.910000</ele>
                <time>2016-09-25T04:29:19Z</time>
            </trkpt>
            <trkpt lon="101.487930" lat="14.537614">
                <ele>393.320000</ele>
                <time>2016-09-25T04:29:35Z</time>
            </trkpt>
            <trkpt lon="101.488280" lat="14.538335">
                <ele>393.800000</ele>
                <time>2016-09-25T04:29:55Z</time>
            </trkpt>
            <trkpt lon="101.488315" lat="14.539613">
                <ele>396.200000</ele>
                <time>2016-09-25T04:30:30Z</time>
            </trkpt>
            <trkpt lon="101.488146" lat="14.540055">
                <ele>398.120000</ele>
                <time>2016-09-25T04:30:44Z</time>
            </trkpt>
            <trkpt lon="101.488296" lat="14.540891">
                <ele>399.570000</ele>
                <time>2016-09-25T04:31:11Z</time>
            </trkpt>
            <trkpt lon="101.489468" lat="14.541361">
                <ele>394.760000</ele>
                <time>2016-09-25T04:31:41Z</time>
            </trkpt>
            <trkpt lon="101.494471" lat="14.542155">
                <ele>370.730000</ele>
                <time>2016-09-25T04:33:00Z</time>
            </trkpt>
            <trkpt lon="101.494043" lat="14.542704">
                <ele>370.730000</ele>
                <time>2016-09-25T04:33:18Z</time>
            </trkpt>
            <trkpt lon="101.492971" lat="14.543678">
                <ele>372.650000</ele>
                <time>2016-09-25T04:33:49Z</time>
            </trkpt>
            <trkpt lon="101.492843" lat="14.543812">
                <ele>371.690000</ele>
                <time>2016-09-25T04:33:53Z</time>
            </trkpt>
            <trkpt lon="101.492824" lat="14.544146">
                <ele>371.690000</ele>
                <time>2016-09-25T04:34:02Z</time>
            </trkpt>
            <trkpt lon="101.493282" lat="14.544683">
                <ele>374.570000</ele>
                <time>2016-09-25T04:34:16Z</time>
            </trkpt>
            <trkpt lon="101.493861" lat="14.545261">
                <ele>373.130000</ele>
                <time>2016-09-25T04:34:29Z</time>
            </trkpt>
            <trkpt lon="101.494760" lat="14.546182">
                <ele>369.760000</ele>
                <time>2016-09-25T04:34:48Z</time>
            </trkpt>
            <trkpt lon="101.494772" lat="14.546296">
                <ele>369.760000</ele>
                <time>2016-09-25T04:34:50Z</time>
            </trkpt>
            <trkpt lon="101.493963" lat="14.547611">
                <ele>367.840000</ele>
                <time>2016-09-25T04:35:15Z</time>
            </trkpt>
            <trkpt lon="101.492304" lat="14.548512">
                <ele>362.550000</ele>
                <time>2016-09-25T04:35:48Z</time>
            </trkpt>
            <trkpt lon="101.491745" lat="14.548806">
                <ele>363.520000</ele>
                <time>2016-09-25T04:36:01Z</time>
            </trkpt>
            <trkpt lon="101.491543" lat="14.548906">
                <ele>363.040000</ele>
                <time>2016-09-25T04:36:06Z</time>
            </trkpt>
            <trkpt lon="101.491146" lat="14.549262">
                <ele>364.480000</ele>
                <time>2016-09-25T04:36:19Z</time>
            </trkpt>
            <trkpt lon="101.490391" lat="14.551541">
                <ele>368.800000</ele>
                <time>2016-09-25T04:37:11Z</time>
            </trkpt>
            <trkpt lon="101.490193" lat="14.552287">
                <ele>367.840000</ele>
                <time>2016-09-25T04:37:27Z</time>
            </trkpt>
            <trkpt lon="101.489338" lat="14.552419">
                <ele>364.960000</ele>
                <time>2016-09-25T04:37:44Z</time>
            </trkpt>
            <trkpt lon="101.484264" lat="14.554373">
                <ele>362.070000</ele>
                <time>2016-09-25T04:39:19Z</time>
            </trkpt>
            <trkpt lon="101.481959" lat="14.555080">
                <ele>357.750000</ele>
                <time>2016-09-25T04:40:02Z</time>
            </trkpt>
            <trkpt lon="101.478055" lat="14.555224">
                <ele>356.790000</ele>
                <time>2016-09-25T04:41:09Z</time>
            </trkpt>
            <trkpt lon="101.476229" lat="14.554723">
                <ele>357.750000</ele>
                <time>2016-09-25T04:41:42Z</time>
            </trkpt>
            <trkpt lon="101.476066" lat="14.554744">
                <ele>358.710000</ele>
                <time>2016-09-25T04:41:45Z</time>
            </trkpt>
            <trkpt lon="101.475823" lat="14.554977">
                <ele>358.710000</ele>
                <time>2016-09-25T04:41:51Z</time>
            </trkpt>
            <trkpt lon="101.475502" lat="14.555347">
                <ele>357.270000</ele>
                <time>2016-09-25T04:41:59Z</time>
            </trkpt>
            <trkpt lon="101.474443" lat="14.555710">
                <ele>351.500000</ele>
                <time>2016-09-25T04:42:16Z</time>
            </trkpt>
            <trkpt lon="101.474375" lat="14.555607">
                <ele>351.500000</ele>
                <time>2016-09-25T04:42:20Z</time>
            </trkpt>
            <trkpt lon="101.474042" lat="14.554546">
                <ele>358.710000</ele>
                <time>2016-09-25T04:43:01Z</time>
            </trkpt>
            <trkpt lon="101.474028" lat="14.554529">
                <ele>359.190000</ele>
                <time>2016-09-25T04:43:31Z</time>
            </trkpt>
            <trkpt lon="101.474026" lat="14.554543">
                <ele>356.790000</ele>
                <time>2016-09-25T04:44:02Z</time>
            </trkpt>
        </trkseg>
    </trk>
</gpx>